Hartford, Connecticut
Traffic Map
Current Weather Conditions
Hartford, Connecticut
Clear
Clear

Feels Like: 3°
Wind Chill: Ceiling: Unl
Heat Index: Visibility: 10mi
Dew Point: -2° Wind: 3mph
Humidity: 70% Direction: 210° (SSW)
Pressure: 30.04in Gusts: 0mph
Raw Report DataKHFD 200753Z AUTO 21003KT 10SM CLR 03/M02 A3004 RMK AO2 SLP172 T00281022
Traffic Incident Summary
Active as of:
Severity:
Category:
InformationThere was an issue retrieving the traffic information for this location. Please try a different location or try again shortly.
Advertisements
Track Severe Weather on mobile